createdAt,value
2022-08-04T00:00:17.571Z,53.8
2022-08-04T00:01:19.681Z,53.8
2022-08-04T00:02:22.326Z,53.6
2022-08-04T00:03:23.599Z,53.6
2022-08-04T00:04:25.583Z,53.6
2022-08-04T00:05:27.596Z,53.5
2022-08-04T00:06:29.611Z,53.9
2022-08-04T00:07:42.765Z,54.1
2022-08-04T00:08:34.701Z,54.5
2022-08-04T00:09:36.601Z,54.9
2022-08-04T00:10:38.618Z,55.2
2022-08-04T00:11:40.591Z,55.1
2022-08-04T00:12:42.640Z,55
2022-08-04T00:13:52.797Z,55.1
2022-08-04T00:14:46.633Z,55.1
2022-08-04T00:15:48.641Z,55.4
2022-08-04T00:16:50.736Z,55.4
2022-08-04T00:17:52.605Z,55.6
2022-08-04T00:18:54.724Z,55.4
2022-08-04T00:19:56.645Z,55.3
2022-08-04T00:20:58.611Z,55
2022-08-04T00:22:01.401Z,54.9
2022-08-04T00:23:02.613Z,55.1
2022-08-04T00:24:10.214Z,55.1
2022-08-04T00:25:06.672Z,55.1
2022-08-04T00:26:08.695Z,55.4
2022-08-04T00:27:10.632Z,55.7
2022-08-04T00:28:12.623Z,56
2022-08-04T00:29:14.639Z,56.2
2022-08-04T00:30:17.051Z,56.3
2022-08-04T00:31:18.679Z,56.3
2022-08-04T00:32:29.677Z,56.2
2022-08-04T00:33:22.621Z,56.1
2022-08-04T00:34:24.714Z,56
2022-08-04T00:35:26.674Z,55.8
2022-08-04T00:36:28.646Z,55.8
2022-08-04T00:37:30.658Z,56
2022-08-04T00:38:32.670Z,56.1
2022-08-04T00:39:34.859Z,56.1
2022-08-04T00:40:37.379Z,56.1
2022-08-04T00:41:41.445Z,56.3
2022-08-04T00:42:49.421Z,56.3
2022-08-04T00:43:42.900Z,56.2
2022-08-04T00:44:44.672Z,56.3
2022-08-04T00:46:00.566Z,56.3
2022-08-04T00:46:48.698Z,56.4
2022-08-04T00:47:50.670Z,56.5
2022-08-04T00:48:52.667Z,56.6
2022-08-04T00:49:54.663Z,56.8
2022-08-04T00:50:56.699Z,57
2022-08-04T00:52:31.062Z,56.7
2022-08-04T00:53:00.723Z,56.6
2022-08-04T00:54:02.690Z,56.7
2022-08-04T00:55:08.478Z,56.6
2022-08-04T00:56:06.663Z,56.6
2022-08-04T00:57:08.676Z,57
2022-08-04T00:58:10.726Z,57.2
2022-08-04T00:59:12.707Z,57.5
2022-08-04T01:00:14.716Z,57.6
2022-08-04T01:01:16.723Z,57.9
2022-08-04T01:02:18.690Z,58.3
2022-08-04T01:03:20.738Z,58.5
2022-08-04T01:04:22.736Z,58.7
2022-08-04T01:05:24.693Z,58.8
2022-08-04T01:06:26.721Z,59
2022-08-04T01:07:28.693Z,59
2022-08-04T01:08:30.725Z,59.1
2022-08-04T01:09:32.741Z,59.1
2022-08-04T01:10:34.703Z,59.3
2022-08-04T01:11:56.385Z,59.4
2022-08-04T01:12:38.745Z,59.4
2022-08-04T01:13:40.846Z,59.2
2022-08-04T01:14:42.825Z,59.2
2022-08-04T01:15:56.444Z,59.1
2022-08-04T01:16:46.740Z,59.1
2022-08-04T01:17:48.715Z,59
2022-08-04T01:18:50.752Z,59
2022-08-04T01:19:52.721Z,58.8
2022-08-04T01:20:54.753Z,58.7
2022-08-04T01:21:56.750Z,58.6
2022-08-04T01:22:58.715Z,58.5
2022-08-04T01:24:00.754Z,58.3
2022-08-04T01:25:04.513Z,58.3
2022-08-04T01:26:06.965Z,58.2
2022-08-04T01:27:06.770Z,58.2
2022-08-04T01:28:08.750Z,58.1
2022-08-04T01:29:10.749Z,58.1
2022-08-04T01:30:12.757Z,58.1
2022-08-04T01:31:14.789Z,58
2022-08-04T01:32:16.767Z,58
2022-08-04T01:33:18.720Z,57.8
2022-08-04T01:34:20.762Z,57.8
2022-08-04T01:35:47.105Z,57.8
2022-08-04T01:36:24.791Z,57.7
2022-08-04T01:37:26.769Z,57.8
2022-08-04T01:38:28.770Z,57.6
2022-08-04T01:39:30.819Z,57.7
2022-08-04T01:40:33.259Z,57.7
2022-08-04T01:41:34.855Z,57.9
2022-08-04T01:42:36.821Z,58.3
2022-08-04T01:43:38.754Z,58.4
2022-08-04T01:44:40.785Z,58.5
2022-08-04T01:45:42.758Z,58.5
2022-08-04T01:46:44.889Z,58.5
2022-08-04T01:47:47.247Z,58.5
2022-08-04T01:48:54.381Z,58.5
2022-08-04T01:49:55.761Z,58.5
2022-08-04T01:50:57.770Z,58.6
2022-08-04T01:51:59.770Z,58.6
2022-08-04T01:53:01.826Z,58.8
2022-08-04T01:54:03.967Z,59
2022-08-04T01:55:05.764Z,59
2022-08-04T01:56:07.780Z,59.1
2022-08-04T01:57:37.279Z,59.2
2022-08-04T01:58:11.783Z,59.3
2022-08-04T01:59:14.463Z,59.5
2022-08-04T02:00:15.810Z,59.7
2022-08-04T02:01:17.842Z,59.8
2022-08-04T02:02:20.104Z,59.9
2022-08-04T02:03:21.768Z,60
2022-08-04T02:04:23.918Z,60
2022-08-04T02:05:25.786Z,60.2
2022-08-04T02:06:27.809Z,60.3
2022-08-04T02:07:29.822Z,60.4
2022-08-04T02:08:31.846Z,60.3
2022-08-04T02:09:33.833Z,60.3
2022-08-04T02:10:35.790Z,60.1
2022-08-04T02:11:37.795Z,60.1
2022-08-04T02:12:39.880Z,60.1
2022-08-04T02:13:41.803Z,60.2
2022-08-04T02:14:43.807Z,60.4
2022-08-04T02:15:45.792Z,60.7
2022-08-04T02:16:52.328Z,60.8
2022-08-04T02:17:49.857Z,60.6
2022-08-04T02:18:51.895Z,60.6
2022-08-04T02:19:53.821Z,60.6
2022-08-04T02:20:55.828Z,60.6
2022-08-04T02:21:57.811Z,60.7
2022-08-04T02:22:59.826Z,60.7
2022-08-04T02:24:01.931Z,60.8
2022-08-04T02:25:03.847Z,60.9
2022-08-04T02:26:05.852Z,61
2022-08-04T02:27:07.850Z,60.9
2022-08-04T02:28:09.835Z,60.7
2022-08-04T02:29:11.816Z,60.8
2022-08-04T02:30:13.910Z,60.9
2022-08-04T02:31:15.838Z,60.6
2022-08-04T02:32:17.844Z,60.5
2022-08-04T02:33:19.847Z,60.3
2022-08-04T02:34:21.873Z,60.4
2022-08-04T02:35:23.893Z,60.6
2022-08-04T02:36:25.839Z,60.6
2022-08-04T02:37:27.849Z,60.7
2022-08-04T02:38:29.848Z,60.6
2022-08-04T02:39:31.945Z,60.7
2022-08-04T02:40:33.902Z,60.9
2022-08-04T02:41:35.872Z,61
2022-08-04T02:42:37.841Z,61.1
2022-08-04T02:43:50.651Z,61.1
2022-08-04T02:44:41.867Z,61.1
2022-08-04T02:45:43.886Z,60.9
2022-08-04T02:46:45.857Z,61
2022-08-04T02:48:08.574Z,60.9
2022-08-04T02:48:49.867Z,60.7
2022-08-04T02:49:51.875Z,60.5
2022-08-04T02:50:53.884Z,60.3
2022-08-04T02:51:56.045Z,60.2
2022-08-04T02:52:57.867Z,60
2022-08-04T02:53:59.886Z,59.8
2022-08-04T02:55:01.944Z,59.8
2022-08-04T02:56:03.918Z,59.8
2022-08-04T02:57:13.308Z,59.8
2022-08-04T02:58:07.879Z,59.9
2022-08-04T02:59:09.885Z,60
2022-08-04T03:00:11.982Z,60.1
2022-08-04T03:01:13.972Z,60.2
2022-08-04T03:02:17.970Z,60.3
2022-08-04T03:03:19.906Z,60.5
2022-08-04T03:04:24.594Z,60.5
2022-08-04T03:05:28.810Z,60.7
2022-08-04T03:06:30.926Z,61
2022-08-04T03:07:32.903Z,61.2
2022-08-04T03:08:34.917Z,61.3
2022-08-04T03:09:42.210Z,61.4
2022-08-04T03:10:43.901Z,61.4
2022-08-04T03:11:46.114Z,61.3
2022-08-04T03:12:47.900Z,61.4
2022-08-04T03:13:49.903Z,61.5
2022-08-04T03:14:51.924Z,61.6
2022-08-04T03:15:53.923Z,61.5
2022-08-04T03:16:55.910Z,61.4
2022-08-04T03:17:57.916Z,61.3
2022-08-04T03:18:59.905Z,61.1
2022-08-04T03:20:02.131Z,61
2022-08-04T03:21:03.931Z,60.9
2022-08-04T03:22:05.915Z,60.8
2022-08-04T03:23:15.100Z,60.8
2022-08-04T03:24:09.931Z,60.8
2022-08-04T03:25:11.940Z,60.7
2022-08-04T03:26:13.935Z,60.7
2022-08-04T03:27:15.909Z,60.7
2022-08-04T03:28:18.045Z,60.6
2022-08-04T03:29:23.643Z,60.5
2022-08-04T03:30:21.958Z,60.6
2022-08-04T03:31:23.933Z,60.5
2022-08-04T03:32:25.947Z,60.7
2022-08-04T03:33:27.997Z,60.8
2022-08-04T03:34:29.960Z,60.8
2022-08-04T03:35:31.932Z,60.8
2022-08-04T03:36:33.949Z,60.7
2022-08-04T03:37:35.954Z,60.7
2022-08-04T03:38:38.047Z,60.9
2022-08-04T03:39:40.037Z,60.8
2022-08-04T03:40:41.961Z,61.1
2022-08-04T03:41:51.120Z,61.3
2022-08-04T03:42:45.945Z,61.3
2022-08-04T03:43:56.612Z,61.1
2022-08-04T03:44:49.990Z,60.9
2022-08-04T03:45:51.967Z,60.9
2022-08-04T03:46:54.039Z,60.9
2022-08-04T03:47:55.965Z,61
2022-08-04T03:48:57.953Z,61.2
2022-08-04T03:49:59.997Z,61.3
2022-08-04T03:51:01.999Z,61.3
2022-08-04T03:52:04.007Z,61.3
2022-08-04T03:53:06.018Z,61.3
2022-08-04T03:54:07.966Z,61.3
2022-08-04T03:55:10.019Z,61.5
2022-08-04T03:56:11.967Z,61.6
2022-08-04T03:57:13.969Z,61.5
2022-08-04T03:58:15.984Z,61.2
2022-08-04T03:59:18.048Z,61.1
2022-08-04T04:00:19.983Z,61.1
2022-08-04T04:01:22.007Z,61.1
2022-08-04T04:02:24.017Z,61
2022-08-04T04:03:28.435Z,60.8
2022-08-04T04:04:28.042Z,60.5
2022-08-04T04:05:30.560Z,60.3
2022-08-04T04:06:31.985Z,60.2
2022-08-04T04:07:36.018Z,60
2022-08-04T04:08:36.035Z,59.9
2022-08-04T04:09:50.937Z,59.8
2022-08-04T04:10:39.985Z,59.8
2022-08-04T04:11:54.406Z,59.7
2022-08-04T04:12:44.005Z,59.8
2022-08-04T04:13:46.295Z,59.9
2022-08-04T04:14:48.030Z,59.9
2022-08-04T04:15:50.409Z,59.7
2022-08-04T04:16:52.027Z,59.5
2022-08-04T04:17:54.024Z,59.5
2022-08-04T04:18:56.189Z,59.4
2022-08-04T04:19:58.711Z,59.2
2022-08-04T04:21:00.026Z,58.9
2022-08-04T04:22:02.131Z,58.9
2022-08-04T04:23:04.014Z,58.8
2022-08-04T04:24:14.296Z,58.6
2022-08-04T04:25:16.075Z,58.6
2022-08-04T04:26:18.027Z,58.5
2022-08-04T04:27:20.304Z,58.5
2022-08-04T04:28:43.963Z,58.5
2022-08-04T04:29:24.055Z,58.4
2022-08-04T04:30:26.103Z,58.5
2022-08-04T04:31:28.020Z,58.5
2022-08-04T04:32:30.040Z,58.3
2022-08-04T04:33:32.032Z,58.2
2022-08-04T04:34:34.047Z,58.1
2022-08-04T04:35:36.070Z,58
2022-08-04T04:36:38.056Z,58.1
2022-08-04T04:37:47.786Z,57.9
2022-08-04T04:38:42.079Z,57.9
2022-08-04T04:39:44.048Z,57.8
2022-08-04T04:40:46.053Z,57.8
2022-08-04T04:41:48.122Z,57.8
2022-08-04T04:42:50.314Z,57.8
2022-08-04T04:43:52.666Z,57.8
2022-08-04T04:44:54.083Z,57.6
2022-08-04T04:45:56.044Z,57.6
2022-08-04T04:46:58.059Z,57.7
2022-08-04T04:48:09.389Z,57.6
2022-08-04T04:49:02.086Z,57.3
2022-08-04T04:50:04.138Z,57.3
2022-08-04T04:51:06.074Z,57.3
2022-08-04T04:52:08.060Z,56.9
2022-08-04T04:53:10.081Z,56.8
2022-08-04T04:54:12.070Z,56.7
2022-08-04T04:55:14.116Z,56.5
2022-08-04T04:56:16.072Z,56.6
2022-08-04T04:57:18.069Z,56.7
2022-08-04T04:58:21.202Z,56.7
2022-08-04T04:59:23.092Z,56.6
2022-08-04T05:00:25.144Z,56.6
2022-08-04T05:01:27.098Z,56.4
2022-08-04T05:02:29.108Z,56.2
2022-08-04T05:03:31.093Z,56.1
2022-08-04T05:04:33.099Z,56
2022-08-04T05:05:35.127Z,55.8
2022-08-04T05:06:37.087Z,55.8
2022-08-04T05:07:39.132Z,55.7
2022-08-04T05:08:42.902Z,55.6
2022-08-04T05:09:43.090Z,55.8
2022-08-04T05:10:45.118Z,56
2022-08-04T05:11:47.191Z,56.1
2022-08-04T05:13:05.265Z,56.3
2022-08-04T05:14:33.829Z,56.1
2022-08-04T05:14:53.104Z,56.2
2022-08-04T05:15:55.498Z,56.4
2022-08-04T05:16:57.152Z,56.4
2022-08-04T05:17:59.097Z,56.4
2022-08-04T05:19:01.111Z,56.3
2022-08-04T05:20:03.321Z,55.9
2022-08-04T05:21:05.102Z,56
2022-08-04T05:22:10.145Z,56.1
2022-08-04T05:23:09.108Z,55.6
2022-08-04T05:24:11.119Z,55.1
2022-08-04T05:25:13.205Z,55
2022-08-04T05:26:15.747Z,55.3
2022-08-04T05:27:17.120Z,55.2
2022-08-04T05:28:19.136Z,55
2022-08-04T05:29:21.149Z,55
2022-08-04T05:30:23.270Z,55.1
2022-08-04T05:31:25.420Z,54.8
2022-08-04T05:32:27.129Z,54.6
2022-08-04T05:35:37.562Z,54.8
2022-08-04T05:36:41.187Z,55.6
2022-08-04T05:37:36.146Z,56
2022-08-04T05:38:38.146Z,56
2022-08-04T05:39:40.273Z,56.1
2022-08-04T05:40:42.175Z,55.9
2022-08-04T05:41:46.066Z,55.4
2022-08-04T05:42:46.206Z,55.2
2022-08-04T05:43:48.153Z,55
2022-08-04T05:44:51.218Z,54.7
2022-08-04T05:45:52.161Z,54.6
2022-08-04T05:46:54.755Z,54.6
2022-08-04T05:47:56.186Z,54.3
2022-08-04T05:48:58.156Z,54.3
2022-08-04T05:50:02.466Z,54.1
2022-08-04T05:51:03.174Z,53.7
2022-08-04T05:52:05.219Z,53.3
2022-08-04T05:53:07.171Z,53
2022-08-04T05:54:09.216Z,53.5
2022-08-04T05:55:11.186Z,54
2022-08-04T05:56:13.186Z,54
2022-08-04T05:57:15.527Z,54.2
2022-08-04T05:58:17.609Z,54.1
2022-08-04T05:59:19.170Z,53.8
2022-08-04T06:00:40.063Z,53.6
2022-08-04T06:01:23.230Z,53.2
2022-08-04T06:02:25.247Z,52.9
2022-08-04T06:03:27.332Z,52.8
2022-08-04T06:04:29.190Z,52.6
2022-08-04T06:05:31.186Z,52.1
2022-08-04T06:06:33.190Z,52
2022-08-04T06:07:35.220Z,52.2
2022-08-04T06:08:37.246Z,51.7
2022-08-04T06:09:39.214Z,51.4
2022-08-04T06:10:51.009Z,51.4
2022-08-04T06:11:54.582Z,51.5
2022-08-04T06:12:54.186Z,51.5
2022-08-04T06:13:56.276Z,50.8
2022-08-04T06:14:59.658Z,50.4
2022-08-04T06:16:00.260Z,50.4
2022-08-04T06:17:02.346Z,50.5
2022-08-04T06:18:32.567Z,50.7
2022-08-04T06:19:57.983Z,50.5
2022-08-04T06:20:18.611Z,50
2022-08-04T06:21:12.147Z,49.9
2022-08-04T06:22:12.196Z,49.7
2022-08-04T06:23:14.202Z,50.3
2022-08-04T06:24:16.237Z,50.4
2022-08-04T06:25:18.277Z,50
2022-08-04T06:26:20.448Z,49.7
2022-08-04T06:27:22.473Z,49.7
2022-08-04T06:28:24.230Z,49.8
2022-08-04T06:29:26.247Z,49
2022-08-04T06:30:28.405Z,48
2022-08-04T06:32:26.320Z,46.7
2022-08-04T06:32:35.538Z,45.5
2022-08-04T06:33:54.714Z,44.7
2022-08-04T06:34:36.249Z,44
2022-08-04T06:35:38.318Z,43.6
2022-08-04T06:36:40.308Z,42.9
2022-08-04T06:37:44.297Z,42.3
2022-08-04T06:38:44.249Z,41.2
2022-08-04T06:39:46.386Z,40.4
2022-08-04T06:40:48.311Z,39.7
2022-08-04T06:41:53.552Z,38.7
2022-08-04T06:42:52.276Z,38.8
2022-08-04T06:43:54.257Z,38.4
2022-08-04T06:44:56.251Z,38.3
2022-08-04T06:45:58.299Z,38.5
2022-08-04T06:47:00.259Z,38.8
2022-08-04T06:48:02.302Z,38.8
2022-08-04T06:49:04.254Z,39
2022-08-04T06:51:24.017Z,38.6
2022-08-04T06:51:24.081Z,38.8
2022-08-04T06:52:10.283Z,37.6
2022-08-04T06:53:12.262Z,37
2022-08-04T06:54:14.276Z,37.2
2022-08-04T06:55:16.299Z,37
2022-08-04T06:56:18.305Z,37.4
2022-08-04T06:57:20.559Z,37.6
2022-08-04T06:58:22.314Z,37.1
2022-08-04T06:59:24.290Z,37.3
2022-08-04T07:00:26.301Z,37
2022-08-04T07:01:28.394Z,36.6
2022-08-04T07:02:30.313Z,37.1
2022-08-04T07:03:32.319Z,37.6
2022-08-04T07:04:34.569Z,38.1
2022-08-04T07:05:36.315Z,38.3
2022-08-04T07:06:38.276Z,37.4
2022-08-04T07:07:56.611Z,37
2022-08-04T07:08:42.302Z,37
2022-08-04T07:09:44.375Z,37
2022-08-04T07:10:46.312Z,36.7
2022-08-04T07:11:48.305Z,36.4
2022-08-04T07:12:50.336Z,36.5
2022-08-04T07:13:52.323Z,37
2022-08-04T07:14:54.379Z,37.5
2022-08-04T07:15:56.347Z,37.8
2022-08-04T07:16:57.696Z,38.1
2022-08-04T07:17:58.676Z,38.2
2022-08-04T07:19:10.201Z,37.9
2022-08-04T07:20:02.523Z,37.2
2022-08-04T07:21:03.811Z,37.4
2022-08-04T07:22:16.083Z,37.4
2022-08-04T07:23:07.600Z,36.6
2022-08-04T07:24:09.343Z,36
2022-08-04T07:25:12.924Z,36.1
2022-08-04T07:26:13.653Z,36.3
2022-08-04T07:27:15.764Z,36.6
2022-08-04T07:28:18.200Z,36.8
2022-08-04T07:29:19.344Z,37.2
2022-08-04T07:30:24.708Z,37.5
2022-08-04T07:31:33.970Z,37.7
2022-08-04T07:32:25.406Z,37.9
2022-08-04T07:33:26.770Z,37.8
2022-08-04T07:34:27.726Z,37.6
2022-08-04T07:36:04.197Z,37.1
2022-08-04T07:36:34.155Z,36.7
2022-08-04T07:37:39.208Z,35.8
2022-08-04T07:38:37.381Z,35.8
2022-08-04T07:39:48.120Z,35.8
2022-08-04T07:40:36.762Z,36.1
2022-08-04T07:41:37.946Z,36
2022-08-04T07:42:39.015Z,35.6
2022-08-04T07:43:40.361Z,34.9
2022-08-04T07:44:42.443Z,34.5
2022-08-04T07:45:43.836Z,34.3
2022-08-04T07:46:44.719Z,34.7
2022-08-04T07:48:04.495Z,34.5
2022-08-04T07:48:49.472Z,34.5
2022-08-04T07:49:54.284Z,34.6
2022-08-04T07:50:52.786Z,35.3
2022-08-04T07:51:53.770Z,35.6
2022-08-04T07:53:15.533Z,35.7
2022-08-04T07:53:56.863Z,35.1
2022-08-04T07:54:57.753Z,35
2022-08-04T07:55:58.793Z,35.3
2022-08-04T07:57:00.100Z,35.6
2022-08-04T07:58:01.002Z,35.9
2022-08-04T07:59:01.769Z,35.7
2022-08-04T08:00:03.053Z,35.6
2022-08-04T08:01:03.835Z,35.6
2022-08-04T08:02:05.423Z,35.1
2022-08-04T08:03:07.481Z,34.4
2022-08-04T08:04:09.551Z,35
2022-08-04T08:05:10.854Z,35.6
2022-08-04T08:06:18.364Z,35.8
2022-08-04T08:07:12.910Z,35.8
2022-08-04T08:08:14.582Z,35.6
2022-08-04T08:09:15.820Z,35.8
2022-08-04T08:10:16.813Z,36.1
2022-08-04T08:11:17.798Z,35.8
2022-08-04T08:12:34.610Z,35.8
2022-08-04T08:13:19.819Z,35.4
2022-08-04T08:14:21.906Z,35.3
2022-08-04T08:15:23.569Z,35.4
2022-08-04T08:16:25.332Z,35.5
2022-08-04T08:17:25.837Z,35.3
2022-08-04T08:18:26.806Z,35.1
2022-08-04T08:19:27.828Z,35.5
2022-08-04T08:20:30.008Z,35.7
2022-08-04T08:21:29.862Z,35.8
2022-08-04T08:22:31.504Z,35.4
2022-08-04T08:23:32.846Z,35
2022-08-04T08:24:33.847Z,35.4
2022-08-04T08:25:34.814Z,34.1
2022-08-04T08:26:35.973Z,33.8
2022-08-04T08:27:36.873Z,33.9
2022-08-04T08:28:37.848Z,34.2
2022-08-04T08:29:38.835Z,34.4
2022-08-04T08:30:39.868Z,35.1
2022-08-04T08:31:55.289Z,34.5
2022-08-04T08:32:41.841Z,34.4
2022-08-04T08:33:42.839Z,34
2022-08-04T08:34:43.884Z,34.1
2022-08-04T08:35:49.958Z,34.3
2022-08-04T08:36:45.925Z,34.7
2022-08-04T08:37:46.866Z,35
2022-08-04T08:38:47.847Z,34.4
2022-08-04T08:39:48.951Z,33.9
2022-08-04T08:40:49.915Z,33.8
2022-08-04T08:41:51.837Z,34
2022-08-04T08:42:51.866Z,33.4
2022-08-04T08:44:00.035Z,33.3
2022-08-04T08:44:57.768Z,33.1
2022-08-04T08:45:56.095Z,32.8
2022-08-04T08:46:56.870Z,32.6
2022-08-04T08:48:00.186Z,32.8
2022-08-04T08:48:58.857Z,32.5
2022-08-04T08:50:03.843Z,32.7
2022-08-04T08:51:00.885Z,33
2022-08-04T08:52:01.884Z,33
2022-08-04T08:53:03.251Z,33.7
2022-08-04T08:54:03.885Z,33.3
2022-08-04T08:55:04.872Z,33.1
2022-08-04T08:56:05.927Z,33.1
2022-08-04T08:57:06.900Z,32.7
2022-08-04T08:58:07.936Z,32.9
2022-08-04T08:59:14.971Z,32.8
2022-08-04T09:00:10.003Z,32.6
2022-08-04T09:01:10.978Z,32.4
2022-08-04T09:02:11.907Z,32.6
2022-08-04T09:03:12.957Z,33
2022-08-04T09:04:22.914Z,32.9
2022-08-04T09:05:14.912Z,32.7
2022-08-04T09:06:15.920Z,32.5
2022-08-04T09:07:17.104Z,32.6
2022-08-04T09:08:17.927Z,33.3
2022-08-04T09:09:18.911Z,33.3
2022-08-04T09:10:19.907Z,32.7
2022-08-04T09:11:21.664Z,32.8
2022-08-04T09:12:25.727Z,31.5
2022-08-04T09:13:23.969Z,31.4
2022-08-04T09:14:24.905Z,30.6
2022-08-04T09:15:25.915Z,30
2022-08-04T09:16:26.905Z,30
2022-08-04T09:17:27.921Z,30.4
2022-08-04T09:18:28.984Z,30.7
2022-08-04T09:19:37.564Z,31.6
2022-08-04T09:20:30.948Z,32
2022-08-04T09:21:31.929Z,31.9
2022-08-04T09:22:32.938Z,32
2022-08-04T09:23:34.001Z,31.7
2022-08-04T09:24:37.100Z,31.7
2022-08-04T09:25:35.950Z,31.5
2022-08-04T09:26:36.962Z,31.8
2022-08-04T09:27:37.941Z,31.8
2022-08-04T09:28:53.405Z,32.2
2022-08-04T09:29:39.946Z,31.3
2022-08-04T09:30:41.011Z,31.6
2022-08-04T09:31:48.914Z,31
2022-08-04T09:32:42.993Z,31.3
2022-08-04T09:33:44.380Z,31.1
2022-08-04T09:34:44.962Z,31.2
2022-08-04T09:35:46.074Z,31.4
2022-08-04T09:36:47.092Z,31.3
2022-08-04T09:37:47.953Z,31.4
2022-08-04T09:38:51.835Z,31
2022-08-04T09:39:51.881Z,31.3
2022-08-04T09:40:52.955Z,31.7
2022-08-04T09:41:52.277Z,31.1
2022-08-04T09:42:52.987Z,30.2
2022-08-04T09:43:57.408Z,30.7
2022-08-04T09:44:58.847Z,31
2022-08-04T09:45:56.034Z,30.8
2022-08-04T09:46:57.008Z,30.2
2022-08-04T09:47:58.398Z,29.9
2022-08-04T09:48:59.002Z,29.7
2022-08-04T09:49:59.981Z,29.1
2022-08-04T09:51:01.071Z,28.7
2022-08-04T09:52:02.019Z,28.9
2022-08-04T09:53:03.013Z,28.8
2022-08-04T09:54:04.065Z,28.6
2022-08-04T09:55:05.009Z,27.9
2022-08-04T09:56:06.076Z,27.9
2022-08-04T09:57:06.987Z,27.7
2022-08-04T09:58:08.011Z,28.1
2022-08-04T09:59:08.984Z,29.2
2022-08-04T10:00:10.211Z,28.6
2022-08-04T10:01:11.369Z,28
2022-08-04T10:02:12.003Z,27.7
2022-08-04T10:03:17.661Z,27.3
2022-08-04T10:04:14.015Z,27.3
2022-08-04T10:05:15.001Z,27.4
2022-08-04T10:06:16.092Z,27.5
2022-08-04T10:07:17.024Z,28.2
2022-08-04T10:08:18.023Z,27.7
2022-08-04T10:09:19.037Z,27.6
2022-08-04T10:10:20.224Z,28
2022-08-04T10:11:21.097Z,28.4
2022-08-04T10:12:22.055Z,27.8
2022-08-04T10:13:23.043Z,27
2022-08-04T10:14:24.018Z,27
2022-08-04T10:15:25.096Z,27.5
2022-08-04T10:16:26.035Z,27.8
2022-08-04T10:17:27.044Z,28.5
2022-08-04T10:18:28.035Z,28.6
2022-08-04T10:19:29.152Z,29
2022-08-04T10:20:33.846Z,28.7
2022-08-04T10:21:31.037Z,29.4
2022-08-04T10:22:37.228Z,29.6
2022-08-04T10:23:55.413Z,29.3
2022-08-04T10:24:34.169Z,28.5
2022-08-04T10:25:37.918Z,28.6
2022-08-04T10:26:36.108Z,28.8
2022-08-04T10:27:37.113Z,28.8
2022-08-04T10:28:38.058Z,28.3
2022-08-04T10:29:39.061Z,28
2022-08-04T10:30:40.226Z,28
2022-08-04T10:31:42.100Z,28
2022-08-04T10:32:46.312Z,28
2022-08-04T10:33:47.107Z,27.8
2022-08-04T10:34:48.077Z,27.8
2022-08-04T10:35:49.335Z,28
2022-08-04T10:36:50.093Z,27.7
2022-08-04T10:37:53.361Z,27.3
2022-08-04T10:38:52.157Z,26.6
2022-08-04T10:39:53.178Z,26.4
2022-08-04T10:40:54.102Z,26.9
2022-08-04T10:41:55.099Z,27.3
2022-08-04T10:42:56.093Z,26.9
2022-08-04T10:43:57.137Z,25.9
2022-08-04T10:44:58.387Z,25.8
2022-08-04T10:45:59.117Z,25.6
2022-08-04T10:47:00.126Z,25.5
2022-08-04T10:48:01.409Z,25.6
2022-08-04T10:49:02.149Z,25.2
2022-08-04T10:50:03.220Z,25.1
2022-08-04T10:51:04.196Z,24.7
2022-08-04T10:52:05.144Z,24.6
2022-08-04T10:53:07.861Z,24.8
2022-08-04T10:54:07.169Z,25
2022-08-04T10:55:08.242Z,25.2
2022-08-04T10:56:09.201Z,25.8
2022-08-04T10:57:10.110Z,26.2
2022-08-04T10:58:11.121Z,26.3
2022-08-04T10:59:12.214Z,26.5
2022-08-04T11:00:13.315Z,26.5
2022-08-04T11:01:51.335Z,26.9
2022-08-04T11:02:16.691Z,26.6
2022-08-04T11:03:16.230Z,26.5
2022-08-04T11:04:26.691Z,26.4
2022-08-04T11:05:18.120Z,26.2
2022-08-04T11:06:19.136Z,25.6
2022-08-04T11:07:20.348Z,26
2022-08-04T11:08:21.718Z,26.1
2022-08-04T11:09:22.121Z,26.3
2022-08-04T11:10:24.924Z,26.2
2022-08-04T11:11:24.153Z,26.5
2022-08-04T11:12:25.159Z,26.9
2022-08-04T11:13:29.713Z,26.9
2022-08-04T11:14:27.183Z,26.8
2022-08-04T11:15:28.190Z,27.4
2022-08-04T11:16:29.158Z,27.3
2022-08-04T11:17:30.165Z,27.2
2022-08-04T11:18:31.139Z,26.4
2022-08-04T11:19:42.909Z,26.4
2022-08-04T11:20:35.825Z,27.1
2022-08-04T11:21:34.172Z,27
2022-08-04T11:22:35.165Z,27.3
2022-08-04T11:23:36.152Z,27.5
2022-08-04T11:24:37.219Z,28.1
2022-08-04T11:25:38.202Z,28.3
2022-08-04T11:26:39.178Z,28.1
2022-08-04T11:27:40.167Z,26.6
2022-08-04T11:28:41.312Z,25.8
2022-08-04T11:29:42.152Z,25.9
2022-08-04T11:30:43.232Z,25.9
2022-08-04T11:31:46.280Z,26.5
2022-08-04T11:32:45.685Z,27.2
2022-08-04T11:33:46.173Z,27.3
2022-08-04T11:34:52.707Z,27.6
2022-08-04T11:35:48.208Z,27.9
2022-08-04T11:36:49.182Z,27.4
2022-08-04T11:37:50.179Z,26.7
2022-08-04T11:38:52.162Z,26.4
2022-08-04T11:39:52.190Z,25.8
2022-08-04T11:40:55.971Z,25.2
2022-08-04T11:41:54.186Z,25.3
2022-08-04T11:42:55.727Z,25.5
2022-08-04T11:44:01.547Z,25.9
2022-08-04T11:44:58.215Z,25.7
2022-08-04T11:45:59.206Z,25.9
2022-08-04T11:47:00.175Z,26
2022-08-04T11:48:01.208Z,26.5
2022-08-04T11:49:02.242Z,27.3
2022-08-04T11:50:03.411Z,27.3
2022-08-04T11:51:04.234Z,27.1
2022-08-04T11:52:06.290Z,27.8
2022-08-04T11:53:07.232Z,28
2022-08-04T11:54:08.234Z,28.5
2022-08-04T11:55:09.320Z,27.9
2022-08-04T11:56:12.598Z,27.5
2022-08-04T11:57:12.262Z,27.4
2022-08-04T11:58:13.252Z,27.5
2022-08-04T11:59:14.232Z,27.4
2022-08-04T12:00:15.385Z,26.9
2022-08-04T12:01:17.435Z,27
2022-08-04T12:02:20.914Z,27.2
2022-08-04T12:03:18.223Z,28.1
2022-08-04T12:04:19.230Z,28.3
2022-08-04T12:05:23.385Z,27.9
2022-08-04T12:06:21.238Z,27.9
2022-08-04T12:07:30.815Z,27.6
2022-08-04T12:08:23.243Z,26.9
2022-08-04T12:09:24.257Z,26.2
2022-08-04T12:10:38.179Z,25.9
2022-08-04T12:11:26.252Z,26.2
2022-08-04T12:12:27.286Z,26.6
2022-08-04T12:13:28.282Z,26.9
2022-08-04T12:14:29.276Z,26.9
2022-08-04T12:15:31.819Z,27.2
2022-08-04T12:16:33.303Z,27.9
2022-08-04T12:17:34.490Z,28.4
2022-08-04T12:18:36.376Z,28.5
2022-08-04T12:19:55.420Z,28.9
2022-08-04T12:20:40.947Z,29.3
2022-08-04T12:21:39.312Z,29.3
2022-08-04T12:22:40.971Z,29
2022-08-04T12:23:41.273Z,28.3
2022-08-04T12:24:42.293Z,27.6
2022-08-04T12:25:45.201Z,27.4
2022-08-04T12:26:44.329Z,27.6
2022-08-04T12:27:45.323Z,27.4
2022-08-04T12:29:08.867Z,27
2022-08-04T12:29:54.381Z,26.3
2022-08-04T12:30:57.621Z,26.9
2022-08-04T12:31:49.372Z,26.9
2022-08-04T12:32:53.613Z,27.8
2022-08-04T12:34:03.229Z,28.1
2022-08-04T12:34:52.294Z,28.6
2022-08-04T12:35:58.195Z,28.8
2022-08-04T12:36:54.330Z,28.9
2022-08-04T12:37:56.659Z,28.9
2022-08-04T12:38:57.341Z,29
2022-08-04T12:40:21.541Z,29.3
2022-08-04T12:40:59.321Z,29.6
2022-08-04T12:42:00.423Z,29
2022-08-04T12:43:01.330Z,28.6
2022-08-04T12:44:02.336Z,28.9
2022-08-04T12:45:03.475Z,27.7
2022-08-04T12:46:04.323Z,27.7
2022-08-04T12:47:26.024Z,27.3
2022-08-04T12:48:06.334Z,27.1
2022-08-04T12:49:07.323Z,26.6
2022-08-04T12:50:08.359Z,27
2022-08-04T12:51:31.385Z,26.7
2022-08-04T12:52:10.371Z,26.8
2022-08-04T12:53:11.407Z,26.6
2022-08-04T12:54:12.366Z,26.2
2022-08-04T12:55:13.367Z,26
2022-08-04T12:56:14.341Z,25.8
2022-08-04T12:57:15.416Z,26.4
2022-08-04T12:58:16.410Z,26.3
2022-08-04T12:59:17.373Z,26.2
2022-08-04T13:00:18.351Z,26.5
2022-08-04T13:02:06.687Z,26.6
2022-08-04T13:02:20.395Z,26.5
2022-08-04T13:03:21.390Z,27
2022-08-04T13:04:22.379Z,28.1
2022-08-04T13:05:23.759Z,27.5
2022-08-04T13:06:24.389Z,26.2
2022-08-04T13:07:25.688Z,25.3
2022-08-04T13:08:26.455Z,24.7
2022-08-04T13:09:27.370Z,24.3
2022-08-04T13:10:30.603Z,24.6
2022-08-04T13:11:29.414Z,24.4
2022-08-04T13:12:32.199Z,24.6
2022-08-04T13:13:31.362Z,24.7
2022-08-04T13:14:32.363Z,24.3
2022-08-04T13:15:33.407Z,24.6
2022-08-04T13:16:34.372Z,24.2
2022-08-04T13:17:35.397Z,24.2
2022-08-04T13:18:36.373Z,24.4
2022-08-04T13:19:39.669Z,24.6
2022-08-04T13:20:38.899Z,24.5
2022-08-04T13:21:49.690Z,24.2
2022-08-04T13:22:46.425Z,24.1
2022-08-04T13:24:11.090Z,24.7
2022-08-04T13:24:57.223Z,25.1
2022-08-04T13:26:40.934Z,25.3
2022-08-04T13:26:53.698Z,25
2022-08-04T13:27:45.432Z,24.5
2022-08-04T13:28:46.423Z,25.1
2022-08-04T13:29:58.577Z,24.7
2022-08-04T13:30:48.491Z,24.4
2022-08-04T13:31:52.473Z,23.8
2022-08-04T13:32:50.419Z,23.9
2022-08-04T13:33:51.378Z,23.2
2022-08-04T13:34:52.976Z,23.2
2022-08-04T13:35:55.064Z,22.9
2022-08-04T13:36:54.446Z,22.2
2022-08-04T13:37:55.638Z,22.1
2022-08-04T13:38:56.486Z,22.4
2022-08-04T13:39:57.476Z,22.4
2022-08-04T13:40:58.398Z,22.3
2022-08-04T13:41:59.440Z,22.3
2022-08-04T13:43:00.422Z,23
2022-08-04T13:47:55.665Z,25
2022-08-04T13:49:23.461Z,24.4
2022-08-04T13:50:09.986Z,23.8
2022-08-04T13:50:58.462Z,23.1
2022-08-04T13:51:59.490Z,23.2
2022-08-04T13:53:00.470Z,23.7